sensor_id;sensor_type;location;lat;lon;timestamp;temperature;humidity
42141;DHT22;27809;51.864;5.646;2022-07-29T00:01:06;15.90;93.20
42141;DHT22;27809;51.864;5.646;2022-07-29T00:03:31;15.90;92.80
42141;DHT22;27809;51.864;5.646;2022-07-29T00:05:57;15.90;93.50
42141;DHT22;27809;51.864;5.646;2022-07-29T00:08:22;16.00;92.90
42141;DHT22;27809;51.864;5.646;2022-07-29T00:10:48;15.90;93.00
42141;DHT22;27809;51.864;5.646;2022-07-29T00:13:14;16.00;93.10
42141;DHT22;27809;51.864;5.646;2022-07-29T00:15:39;15.90;93.00
42141;DHT22;27809;51.864;5.646;2022-07-29T00:18:05;15.90;93.20
42141;DHT22;27809;51.864;5.646;2022-07-29T00:20:30;15.90;93.20
42141;DHT22;27809;51.864;5.646;2022-07-29T00:22:56;15.90;93.40
42141;DHT22;27809;51.864;5.646;2022-07-29T00:25:22;15.90;93.10
42141;DHT22;27809;51.864;5.646;2022-07-29T00:27:48;15.90;93.40
42141;DHT22;27809;51.864;5.646;2022-07-29T00:30:14;15.80;93.80
42141;DHT22;27809;51.864;5.646;2022-07-29T00:32:39;15.80;94.00
42141;DHT22;27809;51.864;5.646;2022-07-29T00:35:05;15.90;94.60
42141;DHT22;27809;51.864;5.646;2022-07-29T00:37:49;15.80;94.30
42141;DHT22;27809;51.864;5.646;2022-07-29T00:40:15;15.80;94.30
42141;DHT22;27809;51.864;5.646;2022-07-29T00:42:45;15.90;94.50
42141;DHT22;27809;51.864;5.646;2022-07-29T00:45:12;15.80;94.30
42141;DHT22;27809;51.864;5.646;2022-07-29T00:47:38;15.90;94.30
42141;DHT22;27809;51.864;5.646;2022-07-29T00:50:05;15.90;94.00
42141;DHT22;27809;51.864;5.646;2022-07-29T00:52:36;15.80;94.30
42141;DHT22;27809;51.864;5.646;2022-07-29T00:55:04;15.80;94.60
42141;DHT22;27809;51.864;5.646;2022-07-29T00:57:30;15.80;94.00
42141;DHT22;27809;51.864;5.646;2022-07-29T00:59:56;15.80;94.30
42141;DHT22;27809;51.864;5.646;2022-07-29T01:02:22;15.80;94.20
42141;DHT22;27809;51.864;5.646;2022-07-29T01:04:48;15.80;94.20
42141;DHT22;27809;51.864;5.646;2022-07-29T01:07:14;15.80;94.30
42141;DHT22;27809;51.864;5.646;2022-07-29T01:09:40;15.80;94.50
42141;DHT22;27809;51.864;5.646;2022-07-29T01:12:07;15.90;94.90
42141;DHT22;27809;51.864;5.646;2022-07-29T01:14:34;15.90;94.40
42141;DHT22;27809;51.864;5.646;2022-07-29T01:17:09;16.00;94.50
42141;DHT22;27809;51.864;5.646;2022-07-29T01:19:52;16.00;94.50
42141;DHT22;27809;51.864;5.646;2022-07-29T01:30:25;16.00;94.10
42141;DHT22;27809;51.864;5.646;2022-07-29T01:32:56;16.00;94.30
42141;DHT22;27809;51.864;5.646;2022-07-29T01:35:28;16.00;94.50
42141;DHT22;27809;51.864;5.646;2022-07-29T01:38:00;16.10;94.30
42141;DHT22;27809;51.864;5.646;2022-07-29T01:40:52;16.10;93.20
42141;DHT22;27809;51.864;5.646;2022-07-29T01:43:29;16.10;93.40
42141;DHT22;27809;51.864;5.646;2022-07-29T01:46:00;16.10;93.40
42141;DHT22;27809;51.864;5.646;2022-07-29T01:48:37;16.10;94.30
42141;DHT22;27809;51.864;5.646;2022-07-29T01:51:08;16.10;94.70
42141;DHT22;27809;51.864;5.646;2022-07-29T01:54:01;16.10;97.60
42141;DHT22;27809;51.864;5.646;2022-07-29T01:56:29;15.80;99.90
42141;DHT22;27809;51.864;5.646;2022-07-29T01:58:58;15.50;99.90
42141;DHT22;27809;51.864;5.646;2022-07-29T02:01:25;15.50;99.90
42141;DHT22;27809;51.864;5.646;2022-07-29T02:03:53;15.40;99.90
42141;DHT22;27809;51.864;5.646;2022-07-29T02:06:21;15.30;99.90
42141;DHT22;27809;51.864;5.646;2022-07-29T02:08:49;15.30;99.90
42141;DHT22;27809;51.864;5.646;2022-07-29T02:11:16;15.20;99.90
42141;DHT22;27809;51.864;5.646;2022-07-29T02:13:43;15.00;99.90
42141;DHT22;27809;51.864;5.646;2022-07-29T02:16:09;14.90;99.90
42141;DHT22;27809;51.864;5.646;2022-07-29T02:18:37;14.70;99.90
42141;DHT22;27809;51.864;5.646;2022-07-29T02:21:05;14.70;99.90
42141;DHT22;27809;51.864;5.646;2022-07-29T02:23:32;14.80;99.90
42141;DHT22;27809;51.864;5.646;2022-07-29T02:25:59;14.80;99.90
42141;DHT22;27809;51.864;5.646;2022-07-29T02:28:27;15.00;99.90
42141;DHT22;27809;51.864;5.646;2022-07-29T02:30:56;15.10;99.90
42141;DHT22;27809;51.864;5.646;2022-07-29T02:33:24;15.10;99.90
42141;DHT22;27809;51.864;5.646;2022-07-29T02:35:50;15.20;99.90
42141;DHT22;27809;51.864;5.646;2022-07-29T02:38:18;15.10;99.90
42141;DHT22;27809;51.864;5.646;2022-07-29T02:41:05;15.20;99.90
42141;DHT22;27809;51.864;5.646;2022-07-29T02:43:33;15.10;99.90
42141;DHT22;27809;51.864;5.646;2022-07-29T02:46:00;14.90;99.90
42141;DHT22;27809;51.864;5.646;2022-07-29T02:48:34;14.70;99.90
42141;DHT22;27809;51.864;5.646;2022-07-29T02:51:06;14.90;99.90
42141;DHT22;27809;51.864;5.646;2022-07-29T02:53:33;14.80;99.90
42141;DHT22;27809;51.864;5.646;2022-07-29T02:56:04;14.80;99.90
42141;DHT22;27809;51.864;5.646;2022-07-29T02:58:39;14.70;99.90
42141;DHT22;27809;51.864;5.646;2022-07-29T03:01:13;14.70;99.90
42141;DHT22;27809;51.864;5.646;2022-07-29T03:03:44;14.70;99.90
42141;DHT22;27809;51.864;5.646;2022-07-29T03:08:38;14.60;99.90
42141;DHT22;27809;51.864;5.646;2022-07-29T03:11:04;14.60;99.90
42141;DHT22;27809;51.864;5.646;2022-07-29T03:13:30;14.50;99.90
42141;DHT22;27809;51.864;5.646;2022-07-29T03:15:57;14.50;99.90
42141;DHT22;27809;51.864;5.646;2022-07-29T03:18:23;14.50;99.90
42141;DHT22;27809;51.864;5.646;2022-07-29T03:20:49;14.40;99.90
42141;DHT22;27809;51.864;5.646;2022-07-29T03:23:19;14.50;99.90
42141;DHT22;27809;51.864;5.646;2022-07-29T03:25:45;14.60;99.90
42141;DHT22;27809;51.864;5.646;2022-07-29T03:28:11;14.50;99.90
42141;DHT22;27809;51.864;5.646;2022-07-29T03:30:36;14.50;99.90
42141;DHT22;27809;51.864;5.646;2022-07-29T03:33:02;14.40;99.90
42141;DHT22;27809;51.864;5.646;2022-07-29T03:35:27;14.40;99.90
42141;DHT22;27809;51.864;5.646;2022-07-29T03:37:53;14.30;99.90
42141;DHT22;27809;51.864;5.646;2022-07-29T03:40:28;14.20;99.90
42141;DHT22;27809;51.864;5.646;2022-07-29T03:42:56;14.30;99.90
42141;DHT22;27809;51.864;5.646;2022-07-29T03:45:25;14.30;99.90
42141;DHT22;27809;51.864;5.646;2022-07-29T03:47:55;14.30;99.90
42141;DHT22;27809;51.864;5.646;2022-07-29T03:50:22;14.20;99.90
42141;DHT22;27809;51.864;5.646;2022-07-29T03:52:48;14.10;99.90
42141;DHT22;27809;51.864;5.646;2022-07-29T03:55:15;14.10;99.90
42141;DHT22;27809;51.864;5.646;2022-07-29T03:57:41;14.00;99.90
42141;DHT22;27809;51.864;5.646;2022-07-29T04:00:08;14.00;99.90
42141;DHT22;27809;51.864;5.646;2022-07-29T04:02:36;14.00;99.90
42141;DHT22;27809;51.864;5.646;2022-07-29T04:05:01;13.90;99.90
42141;DHT22;27809;51.864;5.646;2022-07-29T04:07:27;13.90;99.90
42141;DHT22;27809;51.864;5.646;2022-07-29T04:09:53;14.00;99.90
42141;DHT22;27809;51.864;5.646;2022-07-29T04:12:18;13.90;99.90
42141;DHT22;27809;51.864;5.646;2022-07-29T04:14:44;13.90;99.90
42141;DHT22;27809;51.864;5.646;2022-07-29T04:17:09;13.90;99.90
42141;DHT22;27809;51.864;5.646;2022-07-29T04:19:35;13.90;99.90
42141;DHT22;27809;51.864;5.646;2022-07-29T04:22:01;13.90;99.90
42141;DHT22;27809;51.864;5.646;2022-07-29T04:24:27;14.00;99.90
42141;DHT22;27809;51.864;5.646;2022-07-29T04:26:52;14.10;99.90
42141;DHT22;27809;51.864;5.646;2022-07-29T04:29:18;14.10;99.90
42141;DHT22;27809;51.864;5.646;2022-07-29T04:31:45;14.10;99.90
42141;DHT22;27809;51.864;5.646;2022-07-29T04:34:11;14.00;99.90
42141;DHT22;27809;51.864;5.646;2022-07-29T04:36:37;14.10;99.90
42141;DHT22;27809;51.864;5.646;2022-07-29T04:39:03;14.10;99.90
42141;DHT22;27809;51.864;5.646;2022-07-29T04:41:29;14.00;99.90
42141;DHT22;27809;51.864;5.646;2022-07-29T04:43:54;14.00;99.90
42141;DHT22;27809;51.864;5.646;2022-07-29T04:46:20;14.00;99.90
42141;DHT22;27809;51.864;5.646;2022-07-29T04:48:46;14.10;99.90
42141;DHT22;27809;51.864;5.646;2022-07-29T04:51:13;14.10;99.90
42141;DHT22;27809;51.864;5.646;2022-07-29T04:53:38;14.10;99.90
42141;DHT22;27809;51.864;5.646;2022-07-29T04:56:04;14.00;99.90
42141;DHT22;27809;51.864;5.646;2022-07-29T04:58:30;14.00;99.90
42141;DHT22;27809;51.864;5.646;2022-07-29T05:00:56;14.00;99.90
42141;DHT22;27809;51.864;5.646;2022-07-29T05:03:22;14.00;99.90
42141;DHT22;27809;51.864;5.646;2022-07-29T05:05:47;14.00;99.90
42141;DHT22;27809;51.864;5.646;2022-07-29T05:08:13;14.10;99.90
42141;DHT22;27809;51.864;5.646;2022-07-29T05:10:38;14.20;99.90
42141;DHT22;27809;51.864;5.646;2022-07-29T05:13:05;14.20;99.90
42141;DHT22;27809;51.864;5.646;2022-07-29T05:15:32;14.20;99.90
42141;DHT22;27809;51.864;5.646;2022-07-29T05:17:57;14.30;99.90
42141;DHT22;27809;51.864;5.646;2022-07-29T05:20:24;14.40;99.90
42141;DHT22;27809;51.864;5.646;2022-07-29T05:22:54;14.50;99.90
42141;DHT22;27809;51.864;5.646;2022-07-29T05:25:20;14.50;99.90
42141;DHT22;27809;51.864;5.646;2022-07-29T05:27:45;14.60;99.90
42141;DHT22;27809;51.864;5.646;2022-07-29T05:30:11;14.70;99.90
42141;DHT22;27809;51.864;5.646;2022-07-29T05:32:36;14.80;99.90
42141;DHT22;27809;51.864;5.646;2022-07-29T05:35:02;14.80;99.90
42141;DHT22;27809;51.864;5.646;2022-07-29T05:37:28;14.80;99.90
42141;DHT22;27809;51.864;5.646;2022-07-29T05:39:53;14.70;99.90
42141;DHT22;27809;51.864;5.646;2022-07-29T05:42:19;14.60;99.90
42141;DHT22;27809;51.864;5.646;2022-07-29T05:44:44;14.70;99.90
42141;DHT22;27809;51.864;5.646;2022-07-29T05:47:10;14.90;99.90
42141;DHT22;27809;51.864;5.646;2022-07-29T05:49:36;14.90;99.90
42141;DHT22;27809;51.864;5.646;2022-07-29T05:52:02;14.90;99.90
42141;DHT22;27809;51.864;5.646;2022-07-29T05:54:28;14.90;99.90
42141;DHT22;27809;51.864;5.646;2022-07-29T05:56:53;14.80;99.90
42141;DHT22;27809;51.864;5.646;2022-07-29T05:59:19;15.00;99.90
42141;DHT22;27809;51.864;5.646;2022-07-29T06:01:44;15.10;99.90
42141;DHT22;27809;51.864;5.646;2022-07-29T06:04:10;15.20;99.90
42141;DHT22;27809;51.864;5.646;2022-07-29T06:06:35;15.10;99.90
42141;DHT22;27809;51.864;5.646;2022-07-29T06:09:02;15.20;99.90
42141;DHT22;27809;51.864;5.646;2022-07-29T06:11:28;15.20;99.90
42141;DHT22;27809;51.864;5.646;2022-07-29T06:13:54;15.10;99.90
42141;DHT22;27809;51.864;5.646;2022-07-29T06:16:19;15.10;99.90
42141;DHT22;27809;51.864;5.646;2022-07-29T06:18:45;15.10;99.90
42141;DHT22;27809;51.864;5.646;2022-07-29T06:21:10;17.20;99.90
42141;DHT22;27809;51.864;5.646;2022-07-29T06:23:37;16.00;99.90
42141;DHT22;27809;51.864;5.646;2022-07-29T06:26:03;15.50;99.90
42141;DHT22;27809;51.864;5.646;2022-07-29T06:28:29;15.30;99.90
42141;DHT22;27809;51.864;5.646;2022-07-29T06:30:55;15.40;99.90
42141;DHT22;27809;51.864;5.646;2022-07-29T06:33:20;15.50;99.90
42141;DHT22;27809;51.864;5.646;2022-07-29T06:35:46;15.60;99.90
42141;DHT22;27809;51.864;5.646;2022-07-29T06:38:13;15.70;99.90
42141;DHT22;27809;51.864;5.646;2022-07-29T06:40:45;15.90;99.90
42141;DHT22;27809;51.864;5.646;2022-07-29T06:43:35;16.50;99.90
42141;DHT22;27809;51.864;5.646;2022-07-29T06:46:07;16.50;99.90
42141;DHT22;27809;51.864;5.646;2022-07-29T06:48:34;16.30;99.90
42141;DHT22;27809;51.864;5.646;2022-07-29T06:51:02;16.60;99.90
42141;DHT22;27809;51.864;5.646;2022-07-29T06:53:28;16.90;99.90
42141;DHT22;27809;51.864;5.646;2022-07-29T06:55:53;16.80;99.90
42141;DHT22;27809;51.864;5.646;2022-07-29T06:58:19;16.50;99.90
42141;DHT22;27809;51.864;5.646;2022-07-29T07:00:46;16.60;99.90
42141;DHT22;27809;51.864;5.646;2022-07-29T07:03:13;16.60;99.90
42141;DHT22;27809;51.864;5.646;2022-07-29T07:05:39;16.70;99.90
42141;DHT22;27809;51.864;5.646;2022-07-29T07:08:04;16.70;99.90
42141;DHT22;27809;51.864;5.646;2022-07-29T07:10:30;16.70;99.90
42141;DHT22;27809;51.864;5.646;2022-07-29T07:12:56;16.70;99.90
42141;DHT22;27809;51.864;5.646;2022-07-29T07:15:21;17.00;99.90
42141;DHT22;27809;51.864;5.646;2022-07-29T07:17:50;16.80;99.90
42141;DHT22;27809;51.864;5.646;2022-07-29T07:20:16;16.70;99.90
42141;DHT22;27809;51.864;5.646;2022-07-29T07:22:42;17.00;99.90
42141;DHT22;27809;51.864;5.646;2022-07-29T07:25:08;19.70;99.90
42141;DHT22;27809;51.864;5.646;2022-07-29T07:27:34;20.70;93.70
42141;DHT22;27809;51.864;5.646;2022-07-29T07:30:00;20.50;94.30
42141;DHT22;27809;51.864;5.646;2022-07-29T07:32:26;21.20;90.70
42141;DHT22;27809;51.864;5.646;2022-07-29T07:34:52;21.50;88.10
42141;DHT22;27809;51.864;5.646;2022-07-29T07:37:17;21.30;87.50
42141;DHT22;27809;51.864;5.646;2022-07-29T07:39:45;21.10;87.50
42141;DHT22;27809;51.864;5.646;2022-07-29T07:42:10;21.10;86.20
42141;DHT22;27809;51.864;5.646;2022-07-29T07:44:38;20.70;86.80
42141;DHT22;27809;51.864;5.646;2022-07-29T07:47:05;20.30;88.80
42141;DHT22;27809;51.864;5.646;2022-07-29T07:49:30;20.10;90.60
42141;DHT22;27809;51.864;5.646;2022-07-29T07:51:56;21.00;85.80
42141;DHT22;27809;51.864;5.646;2022-07-29T07:54:21;20.80;85.10
42141;DHT22;27809;51.864;5.646;2022-07-29T07:56:47;20.60;86.90
42141;DHT22;27809;51.864;5.646;2022-07-29T07:59:16;20.80;84.50
42141;DHT22;27809;51.864;5.646;2022-07-29T08:01:42;20.30;87.20
42141;DHT22;27809;51.864;5.646;2022-07-29T08:04:08;20.60;86.80
42141;DHT22;27809;51.864;5.646;2022-07-29T08:06:34;20.80;84.60
42141;DHT22;27809;51.864;5.646;2022-07-29T08:09:02;20.40;87.20
42141;DHT22;27809;51.864;5.646;2022-07-29T08:11:28;20.50;86.20
42141;DHT22;27809;51.864;5.646;2022-07-29T08:13:54;20.60;86.30
42141;DHT22;27809;51.864;5.646;2022-07-29T08:16:20;21.20;82.50
42141;DHT22;27809;51.864;5.646;2022-07-29T08:18:45;21.10;82.60
42141;DHT22;27809;51.864;5.646;2022-07-29T08:21:12;21.30;81.60
42141;DHT22;27809;51.864;5.646;2022-07-29T08:23:38;21.30;81.50
42141;DHT22;27809;51.864;5.646;2022-07-29T08:26:05;21.40;80.20
42141;DHT22;27809;51.864;5.646;2022-07-29T08:28:31;21.30;80.40
42141;DHT22;27809;51.864;5.646;2022-07-29T08:30:56;20.80;83.30
42141;DHT22;27809;51.864;5.646;2022-07-29T08:33:22;21.40;80.60
42141;DHT22;27809;51.864;5.646;2022-07-29T08:35:48;21.70;78.70
42141;DHT22;27809;51.864;5.646;2022-07-29T08:38:15;21.70;77.90
42141;DHT22;27809;51.864;5.646;2022-07-29T08:40:40;21.70;77.80
42141;DHT22;27809;51.864;5.646;2022-07-29T08:43:08;21.80;77.60
42141;DHT22;27809;51.864;5.646;2022-07-29T08:45:45;21.70;77.00
42141;DHT22;27809;51.864;5.646;2022-07-29T08:48:15;21.80;77.00
42141;DHT22;27809;51.864;5.646;2022-07-29T08:50:42;21.60;78.10
42141;DHT22;27809;51.864;5.646;2022-07-29T08:53:11;21.90;76.60
42141;DHT22;27809;51.864;5.646;2022-07-29T08:55:43;22.10;75.30
42141;DHT22;27809;51.864;5.646;2022-07-29T08:58:09;21.60;77.60
42141;DHT22;27809;51.864;5.646;2022-07-29T09:00:40;21.80;76.50
42141;DHT22;27809;51.864;5.646;2022-07-29T09:03:08;21.70;77.00
42141;DHT22;27809;51.864;5.646;2022-07-29T09:05:36;22.00;76.20
42141;DHT22;27809;51.864;5.646;2022-07-29T09:08:02;22.30;74.00
42141;DHT22;27809;51.864;5.646;2022-07-29T09:10:27;22.60;74.40
42141;DHT22;27809;51.864;5.646;2022-07-29T09:12:56;22.90;72.20
42141;DHT22;27809;51.864;5.646;2022-07-29T09:15:22;22.30;76.50
42141;DHT22;27809;51.864;5.646;2022-07-29T09:17:49;22.40;75.00
42141;DHT22;27809;51.864;5.646;2022-07-29T09:20:17;22.70;74.00
42141;DHT22;27809;51.864;5.646;2022-07-29T09:22:44;23.00;73.20
42141;DHT22;27809;51.864;5.646;2022-07-29T09:25:12;22.90;73.00
42141;DHT22;27809;51.864;5.646;2022-07-29T09:27:38;23.60;70.00
42141;DHT22;27809;51.864;5.646;2022-07-29T09:30:08;23.60;71.10
42141;DHT22;27809;51.864;5.646;2022-07-29T09:32:58;23.20;73.50
42141;DHT22;27809;51.864;5.646;2022-07-29T09:35:26;23.10;72.20
42141;DHT22;27809;51.864;5.646;2022-07-29T09:37:53;23.20;72.10
42141;DHT22;27809;51.864;5.646;2022-07-29T09:40:26;22.90;72.10
42141;DHT22;27809;51.864;5.646;2022-07-29T09:42:52;23.00;72.40
42141;DHT22;27809;51.864;5.646;2022-07-29T09:47:52;23.40;73.60
42141;DHT22;27809;51.864;5.646;2022-07-29T09:50:17;23.90;71.20
42141;DHT22;27809;51.864;5.646;2022-07-29T09:52:51;23.90;70.40
42141;DHT22;27809;51.864;5.646;2022-07-29T09:55:17;24.30;70.20
42141;DHT22;27809;51.864;5.646;2022-07-29T09:57:45;24.60;66.30
42141;DHT22;27809;51.864;5.646;2022-07-29T10:00:17;24.60;67.60
42141;DHT22;27809;51.864;5.646;2022-07-29T10:02:44;25.30;66.70
42141;DHT22;27809;51.864;5.646;2022-07-29T10:07:56;24.80;65.40
42141;DHT22;27809;51.864;5.646;2022-07-29T10:10:28;24.70;67.00
42141;DHT22;27809;51.864;5.646;2022-07-29T10:12:56;24.80;64.90
42141;DHT22;27809;51.864;5.646;2022-07-29T10:15:24;25.00;64.40
42141;DHT22;27809;51.864;5.646;2022-07-29T10:17:52;24.60;63.40
42141;DHT22;27809;51.864;5.646;2022-07-29T10:20:18;24.80;61.90
42141;DHT22;27809;51.864;5.646;2022-07-29T10:22:44;24.80;62.10
42141;DHT22;27809;51.864;5.646;2022-07-29T10:25:12;24.70;62.00
42141;DHT22;27809;51.864;5.646;2022-07-29T10:27:37;24.70;63.50
42141;DHT22;27809;51.864;5.646;2022-07-29T10:30:04;24.60;63.30
42141;DHT22;27809;51.864;5.646;2022-07-29T10:41:11;24.80;62.10
42141;DHT22;27809;51.864;5.646;2022-07-29T10:44:08;24.40;62.10
42141;DHT22;27809;51.864;5.646;2022-07-29T10:46:38;24.70;61.30
42141;DHT22;27809;51.864;5.646;2022-07-29T10:49:15;24.70;62.40
42141;DHT22;27809;51.864;5.646;2022-07-29T10:51:58;25.20;59.20
42141;DHT22;27809;51.864;5.646;2022-07-29T11:05:08;24.70;59.00
42141;DHT22;27809;51.864;5.646;2022-07-29T11:07:36;25.20;57.20
42141;DHT22;27809;51.864;5.646;2022-07-29T11:15:13;25.10;60.30
42141;DHT22;27809;51.864;5.646;2022-07-29T11:18:06;25.80;57.10
42141;DHT22;27809;51.864;5.646;2022-07-29T11:23:19;25.90;55.80
42141;DHT22;27809;51.864;5.646;2022-07-29T11:26:16;26.00;56.00
42141;DHT22;27809;51.864;5.646;2022-07-29T11:31:41;25.90;55.50
42141;DHT22;27809;51.864;5.646;2022-07-29T11:34:30;26.30;52.30
42141;DHT22;27809;51.864;5.646;2022-07-29T11:39:33;25.30;54.10
42141;DHT22;27809;51.864;5.646;2022-07-29T11:47:35;25.60;55.30
42141;DHT22;27809;51.864;5.646;2022-07-29T11:50:04;25.60;53.80
42141;DHT22;27809;51.864;5.646;2022-07-29T11:52:41;25.40;52.90
42141;DHT22;27809;51.864;5.646;2022-07-29T11:55:14;25.90;53.40
42141;DHT22;27809;51.864;5.646;2022-07-29T11:58:06;26.30;52.20
42141;DHT22;27809;51.864;5.646;2022-07-29T12:00:37;26.00;52.10
42141;DHT22;27809;51.864;5.646;2022-07-29T12:03:10;26.00;52.20
42141;DHT22;27809;51.864;5.646;2022-07-29T12:05:43;25.90;53.10
42141;DHT22;27809;51.864;5.646;2022-07-29T12:08:21;25.60;51.00
42141;DHT22;27809;51.864;5.646;2022-07-29T12:10:51;25.70;52.90
42141;DHT22;27809;51.864;5.646;2022-07-29T12:13:19;25.60;52.40
42141;DHT22;27809;51.864;5.646;2022-07-29T12:15:55;25.50;52.80
42141;DHT22;27809;51.864;5.646;2022-07-29T12:18:23;25.60;53.50
42141;DHT22;27809;51.864;5.646;2022-07-29T12:20:59;25.70;51.50
42141;DHT22;27809;51.864;5.646;2022-07-29T12:23:27;25.90;52.80
42141;DHT22;27809;51.864;5.646;2022-07-29T12:25:53;25.80;51.50
42141;DHT22;27809;51.864;5.646;2022-07-29T12:28:18;25.60;49.70
42141;DHT22;27809;51.864;5.646;2022-07-29T12:30:47;25.40;49.00
42141;DHT22;27809;51.864;5.646;2022-07-29T12:35:56;25.50;51.80
42141;DHT22;27809;51.864;5.646;2022-07-29T12:38:22;25.70;51.90
42141;DHT22;27809;51.864;5.646;2022-07-29T12:40:49;25.40;48.90
42141;DHT22;27809;51.864;5.646;2022-07-29T12:43:26;25.50;51.90
42141;DHT22;27809;51.864;5.646;2022-07-29T12:45:53;25.80;53.00
42141;DHT22;27809;51.864;5.646;2022-07-29T12:48:39;25.70;51.80
42141;DHT22;27809;51.864;5.646;2022-07-29T12:51:07;25.60;48.50
42141;DHT22;27809;51.864;5.646;2022-07-29T12:53:35;25.60;53.10
42141;DHT22;27809;51.864;5.646;2022-07-29T12:56:01;26.00;51.00
42141;DHT22;27809;51.864;5.646;2022-07-29T12:58:31;26.10;50.50
42141;DHT22;27809;51.864;5.646;2022-07-29T13:03:26;25.90;48.50
42141;DHT22;27809;51.864;5.646;2022-07-29T13:05:51;25.60;47.00
42141;DHT22;27809;51.864;5.646;2022-07-29T13:08:17;26.20;49.90
42141;DHT22;27809;51.864;5.646;2022-07-29T13:10:46;26.30;51.50
42141;DHT22;27809;51.864;5.646;2022-07-29T13:13:14;26.20;51.60
42141;DHT22;27809;51.864;5.646;2022-07-29T13:15:44;26.40;49.90
42141;DHT22;27809;51.864;5.646;2022-07-29T13:18:28;26.10;50.60
42141;DHT22;27809;51.864;5.646;2022-07-29T13:20:55;26.10;49.80
42141;DHT22;27809;51.864;5.646;2022-07-29T13:23:20;26.20;50.10
42141;DHT22;27809;51.864;5.646;2022-07-29T13:25:46;26.40;52.90
42141;DHT22;27809;51.864;5.646;2022-07-29T13:28:11;26.30;51.10
42141;DHT22;27809;51.864;5.646;2022-07-29T13:30:39;26.50;50.40
42141;DHT22;27809;51.864;5.646;2022-07-29T13:33:05;26.40;50.20
42141;DHT22;27809;51.864;5.646;2022-07-29T13:35:30;26.10;47.70
42141;DHT22;27809;51.864;5.646;2022-07-29T13:37:56;26.30;51.40
42141;DHT22;27809;51.864;5.646;2022-07-29T13:40:21;26.40;50.30
42141;DHT22;27809;51.864;5.646;2022-07-29T13:42:47;26.40;50.00
42141;DHT22;27809;51.864;5.646;2022-07-29T13:45:13;26.20;48.60
42141;DHT22;27809;51.864;5.646;2022-07-29T13:47:39;26.40;50.90
42141;DHT22;27809;51.864;5.646;2022-07-29T13:50:05;26.70;51.60
42141;DHT22;27809;51.864;5.646;2022-07-29T13:52:32;26.70;52.30
42141;DHT22;27809;51.864;5.646;2022-07-29T13:54:57;26.70;49.10
42141;DHT22;27809;51.864;5.646;2022-07-29T13:57:23;26.40;46.50
42141;DHT22;27809;51.864;5.646;2022-07-29T13:59:49;25.50;49.10
42141;DHT22;27809;51.864;5.646;2022-07-29T14:02:16;25.30;49.10
42141;DHT22;27809;51.864;5.646;2022-07-29T14:04:41;25.00;51.50
42141;DHT22;27809;51.864;5.646;2022-07-29T14:07:07;24.70;55.20
42141;DHT22;27809;51.864;5.646;2022-07-29T14:09:33;24.50;56.50
42141;DHT22;27809;51.864;5.646;2022-07-29T14:11:59;24.40;57.80
42141;DHT22;27809;51.864;5.646;2022-07-29T14:14:24;24.30;55.30
42141;DHT22;27809;51.864;5.646;2022-07-29T14:16:50;24.40;53.60
42141;DHT22;27809;51.864;5.646;2022-07-29T14:19:15;24.40;55.30
42141;DHT22;27809;51.864;5.646;2022-07-29T14:21:41;24.40;55.40
42141;DHT22;27809;51.864;5.646;2022-07-29T14:24:06;25.30;51.60
42141;DHT22;27809;51.864;5.646;2022-07-29T14:26:32;25.30;50.70
42141;DHT22;27809;51.864;5.646;2022-07-29T14:28:58;25.40;48.90
42141;DHT22;27809;51.864;5.646;2022-07-29T14:31:23;26.10;48.90
42141;DHT22;27809;51.864;5.646;2022-07-29T14:33:49;26.30;50.60
42141;DHT22;27809;51.864;5.646;2022-07-29T14:36:14;25.60;54.40
42141;DHT22;27809;51.864;5.646;2022-07-29T14:38:40;25.40;58.20
42141;DHT22;27809;51.864;5.646;2022-07-29T14:41:07;26.10;55.70
42141;DHT22;27809;51.864;5.646;2022-07-29T14:43:34;26.80;52.10
42141;DHT22;27809;51.864;5.646;2022-07-29T14:46:00;26.80;52.60
42141;DHT22;27809;51.864;5.646;2022-07-29T14:48:26;26.80;54.60
42141;DHT22;27809;51.864;5.646;2022-07-29T14:50:51;27.20;52.20
42141;DHT22;27809;51.864;5.646;2022-07-29T14:53:17;27.40;51.50
42141;DHT22;27809;51.864;5.646;2022-07-29T14:55:44;26.90;52.30
42141;DHT22;27809;51.864;5.646;2022-07-29T14:58:09;26.90;52.60
42141;DHT22;27809;51.864;5.646;2022-07-29T15:00:35;27.30;51.40
42141;DHT22;27809;51.864;5.646;2022-07-29T15:03:02;27.60;49.50
42141;DHT22;27809;51.864;5.646;2022-07-29T15:05:28;27.50;51.40
42141;DHT22;27809;51.864;5.646;2022-07-29T15:07:54;26.80;48.20
42141;DHT22;27809;51.864;5.646;2022-07-29T15:10:20;25.90;53.10
42141;DHT22;27809;51.864;5.646;2022-07-29T15:12:45;26.10;53.60
42141;DHT22;27809;51.864;5.646;2022-07-29T15:15:11;27.10;52.70
42141;DHT22;27809;51.864;5.646;2022-07-29T15:17:36;27.60;47.70
42141;DHT22;27809;51.864;5.646;2022-07-29T15:20:02;28.00;47.50
42141;DHT22;27809;51.864;5.646;2022-07-29T15:22:28;28.00;44.70
42141;DHT22;27809;51.864;5.646;2022-07-29T15:24:53;28.20;41.80
42141;DHT22;27809;51.864;5.646;2022-07-29T15:27:19;27.70;43.80
42141;DHT22;27809;51.864;5.646;2022-07-29T15:29:44;27.40;44.60
42141;DHT22;27809;51.864;5.646;2022-07-29T15:32:10;27.50;44.30
42141;DHT22;27809;51.864;5.646;2022-07-29T15:34:36;27.80;43.50
42141;DHT22;27809;51.864;5.646;2022-07-29T15:37:02;27.90;44.10
42141;DHT22;27809;51.864;5.646;2022-07-29T15:39:28;27.70;43.00
42141;DHT22;27809;51.864;5.646;2022-07-29T15:41:53;27.60;44.60
42141;DHT22;27809;51.864;5.646;2022-07-29T15:44:19;26.60;45.90
42141;DHT22;27809;51.864;5.646;2022-07-29T15:46:45;25.90;45.10
42141;DHT22;27809;51.864;5.646;2022-07-29T15:49:37;25.60;47.40
42141;DHT22;27809;51.864;5.646;2022-07-29T15:52:06;26.20;46.30
42141;DHT22;27809;51.864;5.646;2022-07-29T15:54:33;26.80;43.10
42141;DHT22;27809;51.864;5.646;2022-07-29T15:56:59;26.90;44.10
42141;DHT22;27809;51.864;5.646;2022-07-29T15:59:24;27.20;44.80
42141;DHT22;27809;51.864;5.646;2022-07-29T16:01:50;27.20;44.70
42141;DHT22;27809;51.864;5.646;2022-07-29T16:04:16;26.60;47.90
42141;DHT22;27809;51.864;5.646;2022-07-29T16:06:42;26.10;48.30
42141;DHT22;27809;51.864;5.646;2022-07-29T16:09:08;25.70;47.80
42141;DHT22;27809;51.864;5.646;2022-07-29T16:11:33;25.50;48.70
42141;DHT22;27809;51.864;5.646;2022-07-29T16:13:59;25.30;48.90
42141;DHT22;27809;51.864;5.646;2022-07-29T16:16:24;25.20;50.10
42141;DHT22;27809;51.864;5.646;2022-07-29T16:18:50;25.70;50.20
42141;DHT22;27809;51.864;5.646;2022-07-29T16:21:15;26.10;50.80
42141;DHT22;27809;51.864;5.646;2022-07-29T16:23:41;26.20;48.70
42141;DHT22;27809;51.864;5.646;2022-07-29T16:26:07;26.60;48.40
42141;DHT22;27809;51.864;5.646;2022-07-29T16:28:32;26.70;46.80
42141;DHT22;27809;51.864;5.646;2022-07-29T16:30:58;26.70;46.60
42141;DHT22;27809;51.864;5.646;2022-07-29T16:33:24;26.50;46.20